Time;durP1;ratioP1;P1;durP2;ratioP2;P2;SDS_P1;SDS_P2;PMS_P1;PMS_P2;Temp;Humidity;BMP_temperature;BMP_pressure;BME280_temperature;BME280_humidity;BME280_pressure;Samples;Min_cycle;Max_cycle;Signal;HPM_P1;HPM_P2
2023/06/05 00:00:19;;;;;;;4.72;2.13;;;21.10;64.00;;;;;;6214126;28;20128;-68
2023/06/05 00:03:20;;;;;;;6.45;2.08;;;21.10;63.80;;;;;;6218299;28;20038;-68
2023/06/05 00:06:21;;;;;;;4.13;2.35;;;21.20;63.70;;;;;;6216900;28;20473;-68
2023/06/05 00:09:22;;;;;;;5.07;2.10;;;21.20;63.60;;;;;;6239592;28;20033;-68
2023/06/05 00:12:23;;;;;;;4.30;2.40;;;21.30;63.50;;;;;;6241282;28;20422;-68
2023/06/05 00:15:24;;;;;;;8.88;2.78;;;21.30;63.40;;;;;;6243102;28;20045;-68
2023/06/05 00:18:26;;;;;;;6.15;2.85;;;21.40;63.30;;;;;;6241261;28;20440;-68
2023/06/05 00:21:28;;;;;;;6.78;3.50;;;21.40;63.30;;;;;;6242310;28;20148;-69
2023/06/05 00:24:29;;;;;;;7.80;2.65;;;21.50;63.40;;;;;;6242244;28;20113;-68
2023/06/05 00:27:30;;;;;;;7.15;2.75;;;21.50;63.40;;;;;;6242572;28;20470;-67
2023/06/05 00:30:30;;;;;;;6.05;3.83;;;21.50;63.30;;;;;;6243546;28;20034;-68
2023/06/05 00:33:32;;;;;;;5.68;3.40;;;21.60;63.40;;;;;;6233915;28;20067;-68
2023/06/05 00:36:33;;;;;;;12.05;3.47;;;21.60;63.40;;;;;;6219356;28;20112;-69
2023/06/05 00:39:34;;;;;;;8.82;3.80;;;21.60;63.70;;;;;;6216936;28;20473;-68
2023/06/05 00:42:35;;;;;;;10.63;4.95;;;21.50;63.90;;;;;;6216421;28;20030;-68
2023/06/05 00:45:36;;;;;;;8.20;4.88;;;21.50;64.10;;;;;;6216433;28;20669;-67
2023/06/05 00:48:38;;;;;;;12.73;5.15;;;21.50;64.30;;;;;;6219296;28;20030;-68
2023/06/05 00:51:41;;;;;;;7.82;5.13;;;21.50;64.60;;;;;;6241539;28;20496;-69
2023/06/05 00:54:42;;;;;;;8.98;5.22;;;21.50;64.70;;;;;;6240152;28;20044;-68
2023/06/05 00:57:44;;;;;;;9.80;5.95;;;21.50;64.60;;;;;;6222432;28;20037;-68
2023/06/05 01:00:49;;;;;;;9.10;5.03;;;21.50;64.50;;;;;;6217481;28;20091;-68
2023/06/05 01:03:52;;;;;;;9.23;5.07;;;21.50;64.50;;;;;;6223640;28;20044;-68
2023/06/05 01:06:53;;;;;;;11.13;4.43;;;21.50;64.50;;;;;;6242398;28;20101;-67
2023/06/05 01:09:55;;;;;;;5.82;3.85;;;21.50;64.50;;;;;;6240429;28;20063;-68
2023/06/05 01:13:25;;;;;;;5.40;3.85;;;21.50;64.40;;;;;;6238757;28;20029;-68
2023/06/05 01:16:30;;;;;;;5.32;3.60;;;21.50;64.50;;;;;;6241706;28;20458;-67
2023/06/05 01:19:32;;;;;;;7.68;3.97;;;21.50;64.30;;;;;;6240570;28;20048;-68
2023/06/05 01:22:34;;;;;;;7.80;3.40;;;21.50;64.20;;;;;;6240029;28;20057;-67
2023/06/05 01:25:37;;;;;;;8.52;3.45;;;21.60;64.20;;;;;;6240154;28;20119;-67
2023/06/05 01:28:40;;;;;;;6.55;3.65;;;21.60;64.10;;;;;;6240349;28;20036;-68
2023/06/05 01:31:44;;;;;;;12.85;3.50;;;21.60;64.00;;;;;;6241618;28;20398;-69
2023/06/05 01:34:48;;;;;;;4.88;2.85;;;21.50;63.80;;;;;;6223577;28;20052;-69
2023/06/05 01:37:50;;;;;;;4.47;2.85;;;21.50;63.80;;;;;;6240412;28;20060;-68
2023/06/05 01:40:52;;;;;;;9.23;2.80;;;21.50;63.80;;;;;;6239956;28;20549;-68
2023/06/05 01:43:55;;;;;;;8.30;2.85;;;21.40;63.60;;;;;;6240102;28;20021;-69
2023/06/05 01:46:56;;;;;;;7.90;2.00;;;21.40;63.60;;;;;;6240405;28;20041;-68
2023/06/05 01:49:57;;;;;;;5.90;2.53;;;21.40;63.60;;;;;;6239742;28;20041;-69
2023/06/05 01:53:00;;;;;;;2.67;1.50;;;21.30;63.50;;;;;;6223175;28;20434;-69
2023/06/05 01:56:03;;;;;;;8.27;1.70;;;21.30;63.30;;;;;;6237147;28;20509;-68
2023/06/05 01:59:06;;;;;;;2.03;1.40;;;21.30;63.20;;;;;;6223142;28;20037;-68
2023/06/05 02:02:08;;;;;;;2.65;1.70;;;21.30;63.20;;;;;;6231264;28;20030;-68
2023/06/05 02:05:10;;;;;;;5.03;1.90;;;21.30;62.90;;;;;;6216753;28;20101;-67
2023/06/05 02:08:13;;;;;;;10.27;3.35;;;21.20;62.70;;;;;;6215105;28;20482;-67
2023/06/05 02:11:14;;;;;;;5.38;2.60;;;21.10;62.70;;;;;;6214385;28;20045;-68
2023/06/05 02:14:15;;;;;;;5.00;2.75;;;21.10;62.90;;;;;;6216563;28;20061;-67
2023/06/05 02:17:16;;;;;;;4.45;2.20;;;21.10;63.10;;;;;;6214612;28;20474;-68
2023/06/05 02:20:18;;;;;;;7.65;2.08;;;21.00;63.00;;;;;;6216149;28;20030;-69
2023/06/05 02:23:19;;;;;;;6.82;2.28;;;21.00;63.00;;;;;;6215648;28;20034;-68
2023/06/05 02:26:21;;;;;;;4.97;2.00;;;21.00;62.80;;;;;;6213522;28;20157;-68
2023/06/05 02:29:23;;;;;;;3.03;1.30;;;21.00;62.70;;;;;;6230996;28;20084;-67
2023/06/05 02:32:28;;;;;;;2.30;1.30;;;21.00;62.50;;;;;;6215573;28;20034;-67
2023/06/05 02:35:29;;;;;;;12.10;1.58;;;21.00;62.40;;;;;;6214836;28;20037;-68
2023/06/05 02:38:30;;;;;;;4.18;1.55;;;21.00;62.30;;;;;;6214826;28;20030;-68
2023/06/05 02:41:31;;;;;;;4.40;1.38;;;21.00;62.10;;;;;;6222147;28;20064;-67
2023/06/05 02:44:33;;;;;;;2.47;1.48;;;21.00;61.90;;;;;;6222488;28;20409;-69
2023/06/05 02:47:35;;;;;;;3.88;1.23;;;21.00;61.80;;;;;;6239109;28;20038;-68
2023/06/05 02:50:36;;;;;;;7.68;1.58;;;21.00;61.70;;;;;;6238805;28;20052;-68
2023/06/05 02:53:39;;;;;;;1.88;1.58;;;21.00;61.60;;;;;;6216220;28;20505;-70
2023/06/05 02:56:40;;;;;;;1.98;1.60;;;21.00;61.50;;;;;;6208445;28;20034;-69
2023/06/05 02:59:42;;;;;;;2.97;1.63;;;21.00;61.40;;;;;;6238558;28;20025;-68
2023/06/05 03:02:48;;;;;;;2.08;1.50;;;21.00;61.30;;;;;;6238213;28;20548;-68
2023/06/05 03:05:53;;;;;;;6.57;1.90;;;21.00;61.30;;;;;;6238662;28;20132;-68
2023/06/05 03:08:55;;;;;;;3.17;1.38;;;21.00;61.30;;;;;;6240208;28;20026;-69
2023/06/05 03:11:58;;;;;;;2.22;1.30;;;20.90;60.70;;;;;;6238034;28;20449;-69
2023/06/05 03:15:00;;;;;;;2.63;1.30;;;20.90;60.60;;;;;;6238469;28;20033;-68
2023/06/05 03:18:02;;;;;;;2.08;1.30;;;20.90;60.60;;;;;;6238331;28;20413;-69
2023/06/05 03:21:04;;;;;;;1.60;1.20;;;20.80;60.50;;;;;;6238772;28;20119;-68
2023/06/05 03:24:08;;;;;;;1.85;1.25;;;20.80;60.50;;;;;;6238294;28;20518;-68
2023/06/05 03:27:10;;;;;;;5.28;1.25;;;20.80;60.60;;;;;;6238580;28;20025;-68
2023/06/05 03:30:16;;;;;;;4.85;1.25;;;20.80;60.50;;;;;;6238436;28;20572;-68
2023/06/05 03:33:19;;;;;;;7.15;1.33;;;20.80;60.30;;;;;;6239582;28;20030;-68
2023/06/05 03:36:21;;;;;;;2.33;1.20;;;20.80;60.20;;;;;;6239474;28;20405;-67
2023/06/05 03:39:24;;;;;;;5.35;1.30;;;20.80;60.10;;;;;;6235179;28;20029;-68
2023/06/05 03:42:25;;;;;;;12.98;1.52;;;20.80;60.20;;;;;;6233620;28;20033;-68
2023/06/05 03:45:27;;;;;;;7.35;1.55;;;20.80;60.30;;;;;;6242908;28;20033;-69
2023/06/05 03:48:28;;;;;;;2.67;1.23;;;20.80;60.20;;;;;;6242558;28;20500;-66
2023/06/05 03:51:29;;;;;;;3.42;1.48;;;20.90;60.20;;;;;;6205354;28;20026;-67
2023/06/05 03:54:32;;;;;;;2.13;1.52;;;20.80;60.20;;;;;;6241639;28;20358;-69
2023/06/05 03:57:34;;;;;;;4.75;1.80;;;20.90;60.30;;;;;;6226047;28;20120;-68
2023/06/05 04:00:35;;;;;;;15.23;1.60;;;20.80;60.30;;;;;;6242570;28;20143;-68
2023/06/05 04:03:38;;;;;;;4.60;1.50;;;20.90;60.40;;;;;;6242149;28;20438;-68
2023/06/05 04:06:40;;;;;;;2.85;1.27;;;20.90;60.60;;;;;;6227799;28;20136;-69
2023/06/05 04:09:42;;;;;;;2.05;1.60;;;20.80;60.60;;;;;;6243086;28;20539;-69
2023/06/05 04:12:43;;;;;;;3.00;1.48;;;20.90;60.80;;;;;;6243503;28;20033;-69
2023/06/05 04:15:44;;;;;;;4.15;1.77;;;20.90;60.90;;;;;;6245148;28;20793;-69
2023/06/05 04:18:46;;;;;;;6.03;1.60;;;20.90;60.80;;;;;;6242690;28;20037;-67
2023/06/05 04:21:46;;;;;;;2.80;1.23;;;20.90;60.40;;;;;;6225773;28;20033;-69
2023/06/05 04:24:47;;;;;;;2.25;1.38;;;20.90;60.10;;;;;;6258929;28;20133;-68
2023/06/05 04:27:51;;;;;;;2.78;1.27;;;20.80;60.00;;;;;;6241617;28;20021;-68
2023/06/05 04:30:52;;;;;;;5.90;1.30;;;20.90;59.90;;;;;;6242159;28;20168;-68
2023/06/05 04:33:53;;;;;;;6.85;1.58;;;20.90;59.90;;;;;;6239122;28;20025;-68
2023/06/05 04:36:54;;;;;;;3.28;1.30;;;20.90;59.80;;;;;;6225102;28;20041;-68
2023/06/05 04:39:55;;;;;;;1.60;1.35;;;20.90;59.80;;;;;;6225212;28;20390;-68
2023/06/05 04:42:56;;;;;;;6.57;1.33;;;20.90;59.50;;;;;;6241241;28;20338;-68
2023/06/05 04:46:00;;;;;;;3.03;1.60;;;21.00;59.30;;;;;;6241597;28;20045;-68
2023/06/05 04:49:02;;;;;;;2.83;1.83;;;21.00;59.30;;;;;;6223938;28;20032;-68
2023/06/05 04:52:03;;;;;;;5.93;1.40;;;21.00;59.30;;;;;;6242777;28;20040;-67
2023/06/05 04:55:05;;;;;;;3.03;1.77;;;21.00;59.40;;;;;;6241560;28;20116;-70
2023/06/05 04:58:07;;;;;;;2.60;1.65;;;21.00;59.40;;;;;;6241117;28;20021;-68
2023/06/05 05:01:08;;;;;;;3.75;2.10;;;21.10;59.40;;;;;;6241025;28;20151;-67
2023/06/05 05:04:13;;;;;;;4.80;2.10;;;21.10;59.30;;;;;;6242566;28;20025;-70
2023/06/05 05:07:16;;;;;;;5.88;1.80;;;21.20;59.30;;;;;;6240971;28;20029;-68
2023/06/05 05:10:18;;;;;;;3.75;1.88;;;21.20;59.30;;;;;;6241166;28;20041;-68
2023/06/05 05:13:20;;;;;;;11.25;2.45;;;21.20;59.30;;;;;;6240855;28;20033;-67
2023/06/05 05:16:21;;;;;;;4.30;2.00;;;21.20;59.20;;;;;;6236123;28;20029;-69
2023/06/05 05:19:22;;;;;;;4.65;2.50;;;21.20;59.30;;;;;;6240712;28;20076;-67
2023/06/05 05:22:24;;;;;;;5.95;2.22;;;21.20;59.40;;;;;;6240057;28;20359;-69
2023/06/05 05:25:25;;;;;;;3.30;1.88;;;21.20;59.40;;;;;;6240412;28;20770;-69
2023/06/05 05:28:26;;;;;;;4.25;2.17;;;21.20;59.40;;;;;;6240878;28;20039;-67
2023/06/05 05:31:29;;;;;;;4.82;2.55;;;21.20;59.40;;;;;;6240462;28;20078;-70
2023/06/05 05:34:30;;;;;;;7.45;2.80;;;21.20;59.30;;;;;;6230418;28;20037;-68
2023/06/05 05:37:32;;;;;;;4.15;2.28;;;21.20;59.30;;;;;;6240907;28;20030;-69
2023/06/05 05:40:32;;;;;;;4.28;2.60;;;21.30;59.30;;;;;;6223357;28;20087;-68
2023/06/05 05:43:33;;;;;;;4.22;2.45;;;21.40;59.30;;;;;;6240861;28;20052;-67
2023/06/05 05:46:34;;;;;;;3.70;2.42;;;21.30;59.20;;;;;;6239919;28;20033;-67
2023/06/05 05:49:35;;;;;;;6.95;2.30;;;21.40;59.20;;;;;;6242071;28;20025;-69
2023/06/05 05:52:36;;;;;;;4.68;2.80;;;21.50;59.10;;;;;;6240906;28;20144;-68
2023/06/05 05:55:36;;;;;;;7.80;2.97;;;21.50;59.20;;;;;;6241281;28;20363;-69
2023/06/05 05:58:37;;;;;;;7.60;2.63;;;21.60;59.30;;;;;;6240504;28;20029;-68
2023/06/05 06:01:38;;;;;;;4.80;3.15;;;21.60;59.30;;;;;;6240891;28;20029;-71
2023/06/05 06:04:40;;;;;;;4.55;2.70;;;21.70;59.50;;;;;;6240881;28;20057;-68
2023/06/05 06:07:42;;;;;;;5.10;2.58;;;21.70;59.50;;;;;;6241306;28;20041;-68
2023/06/05 06:10:43;;;;;;;8.60;2.88;;;21.70;59.50;;;;;;6241155;28;20033;-69
2023/06/05 06:13:44;;;;;;;7.90;3.00;;;21.90;59.40;;;;;;6239468;28;20543;-67
2023/06/05 06:16:45;;;;;;;6.63;3.25;;;21.90;59.20;;;;;;6241160;28;20060;-68
2023/06/05 06:19:48;;;;;;;10.57;3.10;;;21.90;59.10;;;;;;6240696;28;20033;-68
2023/06/05 06:22:49;;;;;;;4.03;2.60;;;21.90;59.00;;;;;;6240084;28;20064;-68
2023/06/05 06:25:51;;;;;;;6.88;2.30;;;22.00;59.00;;;;;;6240572;28;20034;-70
2023/06/05 06:28:54;;;;;;;6.38;2.55;;;22.00;59.50;;;;;;6238561;28;20398;-69
2023/06/05 06:31:55;;;;;;;4.07;2.30;;;22.00;58.90;;;;;;6239500;28;20473;-67
2023/06/05 06:34:56;;;;;;;8.60;2.72;;;22.00;58.90;;;;;;6240284;28;20030;-69
2023/06/05 06:37:58;;;;;;;5.43;3.05;;;22.00;58.80;;;;;;6222355;28;20393;-68
2023/06/05 06:40:59;;;;;;;7.43;3.25;;;22.10;58.80;;;;;;6238638;28;20095;-67
2023/06/05 06:44:01;;;;;;;15.10;4.15;;;22.00;58.80;;;;;;6238740;28;20113;-68
2023/06/05 06:47:02;;;;;;;4.45;3.20;;;22.00;58.90;;;;;;6240130;28;20074;-69
2023/06/05 06:50:03;;;;;;;6.93;3.75;;;22.10;59.00;;;;;;6240592;28;20463;-68
2023/06/05 06:53:03;;;;;;;3.72;2.58;;;22.10;58.90;;;;;;6238552;28;20053;-68
2023/06/05 06:56:04;;;;;;;12.65;3.05;;;22.10;59.00;;;;;;6238690;28;20027;-68
2023/06/05 06:59:15;;;;;;;10.98;3.65;;;22.20;59.10;;;;;;6239809;28;20378;-68
2023/06/05 07:02:18;;;;;;;8.63;3.53;;;22.30;58.90;;;;;;6238323;28;20044;-70
2023/06/05 07:05:19;;;;;;;5.30;2.75;;;22.40;58.50;;;;;;6239840;28;20076;-68
2023/06/05 07:08:20;;;;;;;8.10;3.22;;;22.40;58.50;;;;;;6240221;28;20117;-69
2023/06/05 07:11:21;;;;;;;4.63;3.08;;;22.40;58.40;;;;;;6239817;28;20349;-70
2023/06/05 07:14:22;;;;;;;6.18;2.97;;;22.50;58.20;;;;;;6245711;28;20467;-68
2023/06/05 07:17:23;;;;;;;4.20;2.58;;;22.60;58.10;;;;;;6245481;28;20037;-69
2023/06/05 07:20:24;;;;;;;4.20;2.83;;;22.70;57.80;;;;;;6244095;28;20377;-70
2023/06/05 07:23:25;;;;;;;8.25;3.00;;;22.80;57.50;;;;;;6242699;28;20040;-69
2023/06/05 07:26:27;;;;;;;5.10;2.30;;;22.90;57.20;;;;;;6243932;28;20041;-69
2023/06/05 07:29:28;;;;;;;5.47;2.25;;;22.90;56.70;;;;;;6244587;28;20095;-68
2023/06/05 07:32:29;;;;;;;3.70;2.10;;;22.90;56.80;;;;;;6242641;28;20029;-69
2023/06/05 07:35:30;;;;;;;5.10;2.50;;;23.00;56.90;;;;;;6243491;28;20389;-70
2023/06/05 07:38:32;;;;;;;6.32;2.35;;;23.10;56.50;;;;;;6244732;28;20037;-68
2023/06/05 07:41:33;;;;;;;11.73;2.38;;;23.20;56.00;;;;;;6245798;28;20041;-69
2023/06/05 07:44:34;;;;;;;4.03;2.05;;;23.30;55.70;;;;;;6245377;28;20072;-67
2023/06/05 07:47:34;;;;;;;4.95;2.25;;;23.40;55.40;;;;;;6244424;28;20036;-68
2023/06/05 07:50:35;;;;;;;2.58;1.85;;;23.50;54.90;;;;;;6244599;28;20045;-69
2023/06/05 07:53:36;;;;;;;3.33;1.90;;;23.60;54.40;;;;;;6242303;28;20037;-69
2023/06/05 07:56:38;;;;;;;5.90;2.30;;;23.80;54.10;;;;;;6244260;28;20125;-69
2023/06/05 07:59:38;;;;;;;1.90;1.75;;;24.00;53.80;;;;;;6243993;28;20077;-69
2023/06/05 08:02:40;;;;;;;3.17;2.08;;;24.10;53.10;;;;;;6225563;28;20373;-70
2023/06/05 08:05:43;;;;;;;2.75;2.00;;;24.20;52.30;;;;;;6243950;28;20394;-69
2023/06/05 08:08:44;;;;;;;4.75;2.35;;;24.20;51.90;;;;;;6243525;28;20038;-69
2023/06/05 08:11:45;;;;;;;3.83;2.30;;;24.30;52.00;;;;;;6243853;28;20033;-69
2023/06/05 08:14:46;;;;;;;2.67;2.15;;;24.40;51.90;;;;;;6242966;28;20038;-69
2023/06/05 08:17:47;;;;;;;4.32;2.42;;;24.50;51.60;;;;;;6241763;28;20073;-69
2023/06/05 08:20:48;;;;;;;6.30;2.20;;;24.70;51.50;;;;;;6242111;28;20052;-69
2023/06/05 08:23:49;;;;;;;2.40;1.85;;;24.80;51.00;;;;;;6242377;28;20033;-69
2023/06/05 08:26:49;;;;;;;2.50;1.83;;;24.90;50.50;;;;;;6241246;28;20034;-69
2023/06/05 08:29:51;;;;;;;2.33;1.90;;;24.90;50.10;;;;;;6242972;28;20029;-68
2023/06/05 08:32:52;;;;;;;2.10;1.83;;;24.90;50.00;;;;;;6243499;28;20087;-68
2023/06/05 08:35:52;;;;;;;2.78;1.83;;;24.90;49.70;;;;;;6234310;28;20053;-69
2023/06/05 08:38:53;;;;;;;3.28;2.10;;;25.00;49.50;;;;;;6217126;28;20128;-69
2023/06/05 08:41:59;;;;;;;2.45;1.88;;;25.00;49.40;;;;;;6218471;28;20054;-68
2023/06/05 08:45:00;;;;;;;3.60;2.30;;;25.10;49.30;;;;;;6218916;28;20092;-70
2023/06/05 08:48:04;;;;;;;6.65;2.00;;;25.20;49.20;;;;;;6218391;28;20657;-69
2023/06/05 08:51:09;;;;;;;4.38;2.70;;;25.20;49.00;;;;;;6216616;28;20034;-68
2023/06/05 08:54:14;;;;;;;4.93;2.15;;;25.30;49.10;;;;;;6218161;28;20737;-69
2023/06/05 08:57:15;;;;;;;5.68;2.13;;;25.50;48.60;;;;;;6225954;28;20138;-69
2023/06/05 09:00:17;;;;;;;3.38;1.90;;;25.50;48.30;;;;;;6218120;28;20057;-70
2023/06/05 09:03:20;;;;;;;4.93;2.15;;;25.50;48.00;;;;;;6215726;28;20058;-69
2023/06/05 09:06:21;;;;;;;4.85;2.50;;;25.60;47.90;;;;;;6217902;28;20033;-68
2023/06/05 09:09:22;;;;;;;7.18;2.30;;;25.60;47.70;;;;;;6200394;28;20034;-69
2023/06/05 09:12:25;;;;;;;3.50;2.08;;;25.60;47.50;;;;;;6217860;28;20634;-68
2023/06/05 09:15:31;;;;;;;5.80;2.30;;;25.60;47.60;;;;;;6225562;28;20397;-68
2023/06/05 09:18:36;;;;;;;4.90;2.10;;;25.50;47.40;;;;;;6241786;28;20059;-68
2023/06/05 09:21:37;;;;;;;3.45;2.10;;;25.60;47.40;;;;;;6241551;28;20033;-68
2023/06/05 09:24:40;;;;;;;2.58;1.90;;;25.60;47.50;;;;;;6241913;28;20037;-68
2023/06/05 09:27:41;;;;;;;3.22;2.30;;;25.60;47.60;;;;;;6241755;28;20467;-69
2023/06/05 09:31:02;;;;;;;2.75;1.80;;;25.80;47.50;;;;;;6239692;28;20126;-69
2023/06/05 09:34:03;;;;;;;2.63;1.73;;;25.90;47.10;;;;;;6240751;28;20461;-68
2023/06/05 09:37:06;;;;;;;2.30;1.80;;;26.00;46.80;;;;;;6242310;28;20124;-69
2023/06/05 09:40:08;;;;;;;2.42;1.85;;;26.00;46.50;;;;;;6240278;28;20087;-67
2023/06/05 09:43:24;;;;;;;3.28;2.10;;;26.00;46.50;;;;;;6241567;28;20021;-68
2023/06/05 09:46:25;;;;;;;4.53;1.85;;;26.10;46.70;;;;;;6240326;28;20029;-69
2023/06/05 09:49:30;;;;;;;4.57;2.20;;;26.20;46.50;;;;;;6241295;28;20132;-69
2023/06/05 09:52:35;;;;;;;3.10;2.08;;;26.20;46.40;;;;;;6240925;28;20168;-68
2023/06/05 09:55:36;;;;;;;6.78;2.20;;;26.30;46.20;;;;;;6239834;28;20370;-69
2023/06/05 09:58:38;;;;;;;2.90;2.00;;;26.30;46.00;;;;;;6241100;28;20025;-69
2023/06/05 10:01:43;;;;;;;3.42;2.13;;;26.30;45.80;;;;;;6238755;28;20061;-69
2023/06/05 10:04:46;;;;;;;4.93;2.20;;;26.30;45.90;;;;;;6241145;28;20030;-68
2023/06/05 10:07:53;;;;;;;4.72;2.15;;;26.30;45.80;;;;;;6239066;28;20235;-68
2023/06/05 10:10:56;;;;;;;5.22;2.08;;;26.30;45.70;;;;;;6240884;28;20068;-69
2023/06/05 10:14:01;;;;;;;4.80;2.55;;;26.40;45.60;;;;;;6240326;28;20041;-68
2023/06/05 10:17:02;;;;;;;5.65;2.00;;;26.40;45.30;;;;;;6238853;28;20393;-68
2023/06/05 10:20:05;;;;;;;3.67;2.08;;;26.40;45.40;;;;;;6238982;28;20041;-68
2023/06/05 10:23:06;;;;;;;6.10;2.05;;;26.50;45.20;;;;;;6240074;28;20037;-68
2023/06/05 10:26:27;;;;;;;3.42;2.30;;;26.70;45.20;;;;;;6239933;28;20021;-68
2023/06/05 10:29:46;;;;;;;9.57;2.38;;;26.80;45.00;;;;;;6237993;28;20099;-68
2023/06/05 10:32:50;;;;;;;5.43;2.10;;;27.00;44.80;;;;;;6239134;28;20024;-68
2023/06/05 10:36:10;;;;;;;3.00;2.15;;;27.10;44.80;;;;;;6221682;28;20041;-68
2023/06/05 10:39:13;;;;;;;9.07;2.10;;;27.20;44.80;;;;;;6239817;28;20052;-69
2023/06/05 10:42:23;;;;;;;5.45;2.30;;;27.30;44.60;;;;;;6239640;28;20374;-69
2023/06/05 10:45:34;;;;;;;4.28;2.33;;;27.50;44.40;;;;;;6239608;28;20501;-69
2023/06/05 10:49:11;;;;;;;3.10;2.35;;;27.60;43.90;;;;;;6239458;28;20029;-68
2023/06/05 10:52:35;;;;;;;3.63;2.08;;;27.60;43.80;;;;;;6239332;28;20431;-68
2023/06/05 10:55:43;;;;;;;4.72;2.30;;;27.70;43.50;;;;;;6239555;28;20033;-68
2023/06/05 10:59:03;;;;;;;;;;;27.90;43.40;;;;;;6240211;28;20048;-68
2023/06/05 11:02:16;;;;;;;3.40;2.20;;;28.10;43.10;;;;;;6254583;28;19913;-68
2023/06/05 11:05:17;;;;;;;3.42;2.35;;;28.70;42.00;;;;;;6239048;28;20038;-69
2023/06/05 11:08:19;;;;;;;9.55;2.15;;;29.80;40.40;;;;;;6239036;28;20088;-69
2023/06/05 11:11:21;;;;;;;2.80;1.98;;;30.50;39.20;;;;;;6239171;28;20497;-69
2023/06/05 11:14:21;;;;;;;4.65;2.65;;;30.50;38.90;;;;;;6237711;28;20128;-67
2023/06/05 11:17:27;;;;;;;3.70;2.28;;;30.20;39.20;;;;;;6221310;28;20398;-69
2023/06/05 11:20:28;;;;;;;3.30;2.33;;;30.20;39.10;;;;;;6239318;28;20422;-69
2023/06/05 11:23:29;;;;;;;5.00;2.30;;;30.70;38.20;;;;;;6239096;28;20135;-67
2023/06/05 11:26:42;;;;;;;5.55;2.17;;;30.60;38.20;;;;;;6239212;28;20482;-68
2023/06/05 11:29:43;;;;;;;2.70;2.10;;;30.60;38.60;;;;;;6240103;28;20518;-68
2023/06/05 11:32:45;;;;;;;2.15;1.85;;;31.00;37.80;;;;;;6238746;28;20048;-68
2023/06/05 11:35:48;;;;;;;5.32;2.55;;;31.50;36.80;;;;;;6239592;28;20033;-69
2023/06/05 11:38:58;;;;;;;4.53;1.85;;;32.10;36.00;;;;;;6238768;28;20043;-70
2023/06/05 11:41:58;;;;;;;3.08;2.15;;;33.00;35.20;;;;;;6237659;28;20430;-70
2023/06/05 11:44:59;;;;;;;4.28;2.20;;;33.80;34.00;;;;;;6239724;28;20037;-68
2023/06/05 11:48:07;;;;;;;4.95;2.75;;;34.40;33.50;;;;;;6239925;28;20466;-69
2023/06/05 11:51:08;;;;;;;4.90;2.40;;;34.80;32.50;;;;;;6238130;28;20393;-70
2023/06/05 11:54:14;;;;;;;5.32;2.17;;;34.90;31.90;;;;;;6239231;28;20034;-69
2023/06/05 11:57:17;;;;;;;5.00;2.38;;;35.00;31.80;;;;;;6239861;28;20037;-69
2023/06/05 12:00:25;;;;;;;4.07;2.20;;;35.30;31.30;;;;;;6242423;28;20473;-69
2023/06/05 12:03:28;;;;;;;7.10;2.53;;;35.50;30.80;;;;;;6243705;28;20036;-70
2023/06/05 12:06:29;;;;;;;10.85;2.40;;;35.80;30.50;;;;;;6243712;28;20105;-70
2023/06/05 12:09:30;;;;;;;3.50;2.45;;;35.80;30.50;;;;;;6225523;28;20065;-70
2023/06/05 12:12:31;;;;;;;6.70;2.35;;;36.00;30.00;;;;;;6243486;28;20082;-70
2023/06/05 12:15:34;;;;;;;4.65;2.30;;;36.30;29.90;;;;;;6226163;28;20530;-69
2023/06/05 12:18:35;;;;;;;4.40;2.63;;;36.70;29.60;;;;;;6243747;28;20148;-70
2023/06/05 12:21:36;;;;;;;4.03;2.63;;;37.00;29.10;;;;;;6242046;28;20026;-70
2023/06/05 12:24:37;;;;;;;4.85;2.85;;;37.20;28.90;;;;;;6243225;28;20131;-69
2023/06/05 12:27:38;;;;;;;8.00;3.30;;;37.30;28.40;;;;;;6242140;28;20501;-70
2023/06/05 12:30:42;;;;;;;6.03;2.53;;;37.60;28.20;;;;;;6242003;28;20101;-70
2023/06/05 12:33:49;;;;;;;7.28;2.40;;;37.90;27.90;;;;;;6243165;28;20104;-70
2023/06/05 12:36:51;;;;;;;5.28;2.22;;;38.00;27.30;;;;;;6244054;28;20100;-69
2023/06/05 12:39:52;;;;;;;8.25;2.85;;;38.10;26.90;;;;;;6243423;28;20585;-68
2023/06/05 12:42:53;;;;;;;5.10;2.85;;;38.00;26.90;;;;;;6242944;28;20105;-69
2023/06/05 12:45:54;;;;;;;4.57;2.63;;;38.20;26.60;;;;;;6241999;28;20029;-71
2023/06/05 12:48:55;;;;;;;6.25;2.72;;;38.00;26.30;;;;;;6242610;28;20473;-70
2023/06/05 12:51:57;;;;;;;7.32;2.50;;;37.70;26.60;;;;;;6242393;28;20030;-71
2023/06/05 12:54:57;;;;;;;8.38;3.13;;;37.70;26.60;;;;;;6241625;28;20525;-70
2023/06/05 12:57:58;;;;;;;6.20;2.95;;;38.00;26.30;;;;;;6216357;28;20049;-69
2023/06/05 13:00:59;;;;;;;9.40;3.13;;;38.40;26.00;;;;;;6230747;28;20040;-68
2023/06/05 13:04:00;;;;;;;6.10;3.08;;;38.90;25.30;;;;;;6242313;28;20026;-70
2023/06/05 13:07:01;;;;;;;4.13;3.05;;;39.00;25.20;;;;;;6242943;28;20057;-70
2023/06/05 13:10:03;;;;;;;3.10;2.60;;;39.50;24.90;;;;;;6241804;28;20363;-68
2023/06/05 13:13:04;;;;;;;5.25;3.00;;;39.80;24.70;;;;;;6243368;28;20477;-69
2023/06/05 13:16:06;;;;;;;4.65;2.90;;;40.10;24.20;;;;;;6240886;28;20038;-69
2023/06/05 13:19:07;;;;;;;9.00;2.50;;;40.50;23.80;;;;;;6242307;28;20081;-69
2023/06/05 13:22:08;;;;;;;7.75;2.40;;;40.90;23.30;;;;;;6241683;28;20697;-70
2023/06/05 13:25:09;;;;;;;9.07;3.20;;;41.30;23.00;;;;;;6242017;28;20111;-70
2023/06/05 13:28:10;;;;;;;5.10;2.58;;;41.70;22.60;;;;;;6240676;28;20152;-70
2023/06/05 13:31:13;;;;;;;9.52;3.22;;;42.00;22.10;;;;;;6241541;28;20498;-70
2023/06/05 13:34:14;;;;;;;20.95;3.38;;;42.10;22.00;;;;;;6240089;28;20108;-70
2023/06/05 13:37:15;;;;;;;3.95;2.72;;;42.50;21.70;;;;;;6240099;28;20041;-72
2023/06/05 13:40:15;;;;;;;11.43;2.83;;;42.80;21.30;;;;;;6241850;28;20021;-69
2023/06/05 13:43:16;;;;;;;5.60;2.70;;;42.90;21.10;;;;;;6241157;28;20101;-69
2023/06/05 13:46:17;;;;;;;4.50;3.28;;;43.20;21.00;;;;;;6240388;28;20331;-69
2023/06/05 13:49:18;;;;;;;4.03;3.13;;;43.70;20.60;;;;;;6239892;28;20021;-70
2023/06/05 13:52:20;;;;;;;3.30;2.55;;;44.10;20.20;;;;;;6241260;28;20041;-70
2023/06/05 13:55:21;;;;;;;3.85;2.65;;;44.60;19.90;;;;;;6223201;28;20148;-69
2023/06/05 13:58:22;;;;;;;6.32;2.83;;;44.70;19.50;;;;;;6236630;28;20037;-70
2023/06/05 14:01:24;;;;;;;13.75;3.45;;;44.50;19.50;;;;;;6240293;28;20041;-70
2023/06/05 14:04:24;;;;;;;9.10;2.90;;;44.30;19.70;;;;;;6240614;28;20507;-69
2023/06/05 14:07:25;;;;;;;7.45;2.90;;;44.50;19.50;;;;;;6240670;28;20049;-70
2023/06/05 14:10:26;;;;;;;5.93;2.80;;;44.10;19.50;;;;;;6238869;28;20044;-70
2023/06/05 14:13:27;;;;;;;4.78;3.17;;;43.70;19.80;;;;;;6240200;28;20034;-70
2023/06/05 14:16:28;;;;;;;7.50;3.15;;;43.90;19.70;;;;;;6240422;28;20041;-70
2023/06/05 14:19:29;;;;;;;7.40;2.90;;;44.10;19.30;;;;;;6222353;28;20145;-70
2023/06/05 14:22:30;;;;;;;3.28;2.80;;;44.10;19.40;;;;;;6239654;28;20033;-69
2023/06/05 14:25:30;;;;;;;4.70;2.75;;;44.00;19.40;;;;;;6240569;28;20169;-70
2023/06/05 14:28:31;;;;;;;3.63;2.85;;;44.10;19.30;;;;;;6240305;28;20098;-70
2023/06/05 14:31:32;;;;;;;5.20;2.60;;;43.90;19.40;;;;;;6239979;28;20038;-69
2023/06/05 14:34:33;;;;;;;6.70;2.97;;;43.90;19.40;;;;;;6239822;28;20474;-69
2023/06/05 14:37:34;;;;;;;5.47;2.85;;;43.90;19.40;;;;;;6238461;28;20029;-69
2023/06/05 14:40:35;;;;;;;4.50;3.00;;;43.90;19.30;;;;;;6239399;28;20327;-69
2023/06/05 14:43:35;;;;;;;3.95;2.70;;;44.10;19.20;;;;;;6237766;28;20073;-69
2023/06/05 14:46:36;;;;;;;3.53;2.90;;;44.20;19.20;;;;;;6239673;28;20029;-70
2023/06/05 14:49:37;;;;;;;4.45;2.83;;;44.20;18.90;;;;;;6239996;28;20034;-70
2023/06/05 14:52:38;;;;;;;3.22;2.72;;;44.10;18.90;;;;;;6230078;28;20500;-69
2023/06/05 14:55:39;;;;;;;5.30;2.60;;;43.90;19.00;;;;;;6239790;28;20076;-70
2023/06/05 14:58:40;;;;;;;5.32;2.72;;;44.00;19.00;;;;;;6239935;28;20036;-69
2023/06/05 15:01:41;;;;;;;5.43;2.40;;;44.50;18.90;;;;;;6238441;28;20706;-70
2023/06/05 15:04:42;;;;;;;4.03;2.85;;;44.90;18.80;;;;;;6240266;28;20025;-68
2023/06/05 15:07:44;;;;;;;7.82;2.78;;;45.00;18.60;;;;;;6238100;28;20033;-69
2023/06/05 15:10:45;;;;;;;3.38;2.70;;;44.90;18.50;;;;;;6222344;28;20037;-70
2023/06/05 15:13:46;;;;;;;6.38;2.78;;;43.90;19.00;;;;;;6237997;28;20563;-70
2023/06/05 15:16:47;;;;;;;5.72;2.55;;;42.40;20.00;;;;;;6239547;28;20607;-69
2023/06/05 15:19:48;;;;;;;8.73;2.70;;;40.80;21.10;;;;;;6239463;28;20073;-68
2023/06/05 15:22:48;;;;;;;4.15;2.58;;;39.40;22.60;;;;;;6239311;28;20091;-70
2023/06/05 15:25:49;;;;;;;5.97;2.88;;;38.30;23.70;;;;;;6239742;28;20095;-70
2023/06/05 15:28:50;;;;;;;3.83;2.45;;;37.50;24.80;;;;;;6238375;28;20030;-71
2023/06/05 15:31:51;;;;;;;3.60;2.67;;;37.10;25.40;;;;;;6238224;28;20033;-69
2023/06/05 15:34:52;;;;;;;13.40;3.40;;;37.00;25.40;;;;;;6259952;28;20071;-69
2023/06/05 15:37:53;;;;;;;4.13;2.70;;;37.30;24.70;;;;;;6243425;28;20041;-70
2023/06/05 15:40:55;;;;;;;9.18;2.78;;;37.90;23.70;;;;;;6242921;28;20063;-69
2023/06/05 15:43:56;;;;;;;5.38;2.75;;;38.00;23.20;;;;;;6242349;28;20029;-69
2023/06/05 15:46:57;;;;;;;4.10;2.85;;;37.90;23.00;;;;;;6243256;28;20029;-69